sensor_id;sensor_type;location;lat;lon;timestamp;pressure;altitude;pressure_sealevel;temperature;humidity
12195;BME280;27023;42.680;23.132;2022-09-04T00:00:46;92572.72;;;13.53;100.00
12195;BME280;27023;42.680;23.132;2022-09-04T00:03:29;92567.84;;;13.55;100.00
12195;BME280;27023;42.680;23.132;2022-09-04T00:06:03;92559.06;;;13.51;100.00
12195;BME280;27023;42.680;23.132;2022-09-04T00:08:43;92561.59;;;13.44;100.00
12195;BME280;27023;42.680;23.132;2022-09-04T00:11:25;92566.59;;;13.49;100.00
12195;BME280;27023;42.680;23.132;2022-09-04T00:13:57;92559.41;;;13.50;100.00
12195;BME280;27023;42.680;23.132;2022-09-04T00:16:28;92565.06;;;13.48;100.00
12195;BME280;27023;42.680;23.132;2022-09-04T00:19:02;92565.94;;;13.56;100.00
12195;BME280;27023;42.680;23.132;2022-09-04T00:21:36;92578.00;;;13.53;100.00
12195;BME280;27023;42.680;23.132;2022-09-04T00:24:08;92573.72;;;13.45;100.00
12195;BME280;27023;42.680;23.132;2022-09-04T00:26:42;92568.81;;;13.47;100.00
12195;BME280;27023;42.680;23.132;2022-09-04T00:29:17;92574.19;;;13.51;100.00
12195;BME280;27023;42.680;23.132;2022-09-04T00:31:51;92571.06;;;13.45;100.00
12195;BME280;27023;42.680;23.132;2022-09-04T00:34:36;92572.59;;;13.46;100.00
12195;BME280;27023;42.680;23.132;2022-09-04T00:37:09;92572.09;;;13.41;100.00
12195;BME280;27023;42.680;23.132;2022-09-04T00:39:39;92566.53;;;13.26;100.00
12195;BME280;27023;42.680;23.132;2022-09-04T00:42:25;92574.81;;;13.25;100.00
12195;BME280;27023;42.680;23.132;2022-09-04T00:45:05;92573.84;;;13.33;100.00
12195;BME280;27023;42.680;23.132;2022-09-04T00:53:25;92556.56;;;13.20;100.00
12195;BME280;27023;42.680;23.132;2022-09-04T00:56:08;92550.00;;;13.14;100.00
12195;BME280;27023;42.680;23.132;2022-09-04T00:59:00;92554.63;;;13.17;100.00
12195;BME280;27023;42.680;23.132;2022-09-04T01:01:29;92559.34;;;13.27;100.00
12195;BME280;27023;42.680;23.132;2022-09-04T01:04:11;92561.44;;;13.18;100.00
12195;BME280;27023;42.680;23.132;2022-09-04T01:06:49;92566.59;;;13.30;100.00
12195;BME280;27023;42.680;23.132;2022-09-04T01:09:37;92572.69;;;13.15;100.00
12195;BME280;27023;42.680;23.132;2022-09-04T01:12:21;92567.69;;;13.10;100.00
12195;BME280;27023;42.680;23.132;2022-09-04T01:14:57;92566.56;;;13.11;100.00
12195;BME280;27023;42.680;23.132;2022-09-04T01:17:27;92580.03;;;13.21;100.00
12195;BME280;27023;42.680;23.132;2022-09-04T01:20:02;92576.69;;;13.24;100.00
12195;BME280;27023;42.680;23.132;2022-09-04T01:22:47;92576.63;;;13.21;100.00
12195;BME280;27023;42.680;23.132;2022-09-04T01:25:30;92578.00;;;13.34;100.00
12195;BME280;27023;42.680;23.132;2022-09-04T01:28:03;92564.56;;;13.23;100.00
12195;BME280;27023;42.680;23.132;2022-09-04T01:30:42;92560.19;;;13.31;100.00
12195;BME280;27023;42.680;23.132;2022-09-04T01:33:17;92549.47;;;13.24;100.00
12195;BME280;27023;42.680;23.132;2022-09-04T01:35:55;92555.72;;;13.16;100.00
12195;BME280;27023;42.680;23.132;2022-09-04T01:38:30;92561.66;;;13.28;100.00
12195;BME280;27023;42.680;23.132;2022-09-04T01:41:02;92561.72;;;13.32;100.00
12195;BME280;27023;42.680;23.132;2022-09-04T01:43:33;92567.41;;;13.15;100.00
12195;BME280;27023;42.680;23.132;2022-09-04T01:46:25;92559.00;;;13.09;100.00
12195;BME280;27023;42.680;23.132;2022-09-04T01:49:01;92554.47;;;13.10;100.00
12195;BME280;27023;42.680;23.132;2022-09-04T01:51:37;92562.75;;;13.27;100.00
12195;BME280;27023;42.680;23.132;2022-09-04T01:54:12;92550.16;;;13.21;100.00
12195;BME280;27023;42.680;23.132;2022-09-04T01:56:47;92551.28;;;13.20;100.00
12195;BME280;27023;42.680;23.132;2022-09-04T01:59:25;92552.53;;;13.26;100.00
12195;BME280;27023;42.680;23.132;2022-09-04T02:01:57;92547.34;;;13.33;100.00
12195;BME280;27023;42.680;23.132;2022-09-04T02:04:30;92548.97;;;13.38;100.00
12195;BME280;27023;42.680;23.132;2022-09-04T02:07:07;92546.13;;;13.27;100.00
12195;BME280;27023;42.680;23.132;2022-09-04T02:09:45;92540.41;;;13.25;100.00
12195;BME280;27023;42.680;23.132;2022-09-04T02:12:27;92547.50;;;13.21;100.00
12195;BME280;27023;42.680;23.132;2022-09-04T02:15:02;92539.50;;;13.17;100.00
12195;BME280;27023;42.680;23.132;2022-09-04T02:17:39;92547.09;;;13.19;100.00
12195;BME280;27023;42.680;23.132;2022-09-04T02:20:17;92537.19;;;13.16;100.00
12195;BME280;27023;42.680;23.132;2022-09-04T02:22:53;92529.19;;;13.12;100.00
12195;BME280;27023;42.680;23.132;2022-09-04T02:25:27;92527.16;;;13.05;100.00
12195;BME280;27023;42.680;23.132;2022-09-04T02:28:07;92521.66;;;12.95;100.00
12195;BME280;27023;42.680;23.132;2022-09-04T02:30:45;92528.84;;;12.94;100.00
12195;BME280;27023;42.680;23.132;2022-09-04T02:33:20;92530.66;;;12.90;100.00
12195;BME280;27023;42.680;23.132;2022-09-04T02:35:54;92523.34;;;12.84;100.00
12195;BME280;27023;42.680;23.132;2022-09-04T02:38:29;92527.59;;;12.88;100.00
12195;BME280;27023;42.680;23.132;2022-09-04T02:41:01;92538.19;;;12.88;100.00
12195;BME280;27023;42.680;23.132;2022-09-04T02:43:43;92537.47;;;12.91;100.00
12195;BME280;27023;42.680;23.132;2022-09-04T02:46:20;92532.03;;;12.84;100.00
12195;BME280;27023;42.680;23.132;2022-09-04T02:48:58;92536.34;;;12.73;100.00
12195;BME280;27023;42.680;23.132;2022-09-04T02:51:37;92539.44;;;12.75;100.00
12195;BME280;27023;42.680;23.132;2022-09-04T02:54:15;92544.84;;;12.82;100.00
12195;BME280;27023;42.680;23.132;2022-09-04T02:56:51;92552.72;;;12.79;100.00
12195;BME280;27023;42.680;23.132;2022-09-04T02:59:30;92560.59;;;12.75;100.00
12195;BME280;27023;42.680;23.132;2022-09-04T03:02:04;92555.84;;;12.65;100.00
12195;BME280;27023;42.680;23.132;2022-09-04T03:04:34;92559.16;;;12.62;100.00
12195;BME280;27023;42.680;23.132;2022-09-04T03:07:08;92552.84;;;12.66;100.00
12195;BME280;27023;42.680;23.132;2022-09-04T03:09:41;92551.66;;;12.64;100.00
12195;BME280;27023;42.680;23.132;2022-09-04T03:12:26;92555.91;;;12.68;100.00
12195;BME280;27023;42.680;23.132;2022-09-04T03:15:02;92551.31;;;12.65;100.00
12195;BME280;27023;42.680;23.132;2022-09-04T03:17:34;92547.47;;;12.63;100.00
12195;BME280;27023;42.680;23.132;2022-09-04T03:20:07;92551.13;;;12.58;100.00
12195;BME280;27023;42.680;23.132;2022-09-04T03:22:39;92544.41;;;12.61;100.00
12195;BME280;27023;42.680;23.132;2022-09-04T03:25:27;92544.81;;;12.63;100.00
12195;BME280;27023;42.680;23.132;2022-09-04T03:28:00;92553.03;;;12.58;100.00
12195;BME280;27023;42.680;23.132;2022-09-04T03:30:28;92551.00;;;12.51;100.00
12195;BME280;27023;42.680;23.132;2022-09-04T03:33:04;92554.81;;;12.54;100.00
12195;BME280;27023;42.680;23.132;2022-09-04T03:35:36;92554.72;;;12.66;100.00
12195;BME280;27023;42.680;23.132;2022-09-04T03:38:14;92560.81;;;12.51;100.00
12195;BME280;27023;42.680;23.132;2022-09-04T03:40:50;92565.41;;;12.54;100.00
12195;BME280;27023;42.680;23.132;2022-09-04T03:43:39;92563.78;;;12.49;100.00
12195;BME280;27023;42.680;23.132;2022-09-04T03:46:20;92574.69;;;12.63;100.00
12195;BME280;27023;42.680;23.132;2022-09-04T03:49:05;92578.28;;;12.55;100.00
12195;BME280;27023;42.680;23.132;2022-09-04T03:51:43;92582.53;;;12.60;100.00
12195;BME280;27023;42.680;23.132;2022-09-04T03:54:27;92582.72;;;12.86;100.00
12195;BME280;27023;42.680;23.132;2022-09-04T03:57:23;92582.00;;;12.70;100.00
12195;BME280;27023;42.680;23.132;2022-09-04T04:00:01;92590.72;;;12.55;100.00
12195;BME280;27023;42.680;23.132;2022-09-04T04:02:40;92597.81;;;12.51;100.00
12195;BME280;27023;42.680;23.132;2022-09-04T04:05:24;92604.63;;;12.52;100.00
12195;BME280;27023;42.680;23.132;2022-09-04T04:08:02;92606.69;;;12.43;100.00
12195;BME280;27023;42.680;23.132;2022-09-04T04:10:33;92608.41;;;12.51;100.00
12195;BME280;27023;42.680;23.132;2022-09-04T04:13:26;92609.00;;;12.44;100.00
12195;BME280;27023;42.680;23.132;2022-09-04T04:16:15;92605.09;;;12.38;100.00
12195;BME280;27023;42.680;23.132;2022-09-04T04:19:04;92623.94;;;12.36;100.00
12195;BME280;27023;42.680;23.132;2022-09-04T04:21:44;92624.88;;;12.44;100.00
12195;BME280;27023;42.680;23.132;2022-09-04T04:24:42;92622.22;;;12.44;100.00
12195;BME280;27023;42.680;23.132;2022-09-04T04:27:27;92626.75;;;12.44;100.00
12195;BME280;27023;42.680;23.132;2022-09-04T04:30:04;92625.72;;;12.48;100.00
12195;BME280;27023;42.680;23.132;2022-09-04T04:32:42;92631.94;;;12.56;100.00
12195;BME280;27023;42.680;23.132;2022-09-04T04:35:18;92621.75;;;12.73;100.00
12195;BME280;27023;42.680;23.132;2022-09-04T04:38:00;92617.25;;;12.74;100.00
12195;BME280;27023;42.680;23.132;2022-09-04T04:40:46;92612.28;;;12.72;100.00
12195;BME280;27023;42.680;23.132;2022-09-04T04:43:18;92613.75;;;12.70;100.00
12195;BME280;27023;42.680;23.132;2022-09-04T04:45:53;92622.53;;;12.74;100.00
12195;BME280;27023;42.680;23.132;2022-09-04T04:48:46;92624.91;;;12.79;100.00
12195;BME280;27023;42.680;23.132;2022-09-04T04:51:37;92624.38;;;12.89;100.00
12195;BME280;27023;42.680;23.132;2022-09-04T04:54:16;92628.28;;;12.95;100.00
12195;BME280;27023;42.680;23.132;2022-09-04T04:56:50;92634.47;;;13.03;100.00
12195;BME280;27023;42.680;23.132;2022-09-04T04:59:22;92638.09;;;13.14;100.00
12195;BME280;27023;42.680;23.132;2022-09-04T05:01:58;92634.88;;;13.21;100.00
12195;BME280;27023;42.680;23.132;2022-09-04T05:04:38;92634.72;;;13.33;100.00
12195;BME280;27023;42.680;23.132;2022-09-04T05:07:11;92620.94;;;13.43;100.00
12195;BME280;27023;42.680;23.132;2022-09-04T05:09:47;92627.97;;;13.55;100.00
12195;BME280;27023;42.680;23.132;2022-09-04T05:12:26;92614.38;;;13.56;100.00
12195;BME280;27023;42.680;23.132;2022-09-04T05:14:59;92623.34;;;13.71;100.00
12195;BME280;27023;42.680;23.132;2022-09-04T05:17:35;92627.72;;;13.83;100.00
12195;BME280;27023;42.680;23.132;2022-09-04T05:20:25;92639.69;;;13.96;100.00
12195;BME280;27023;42.680;23.132;2022-09-04T05:23:01;92649.41;;;14.11;100.00
12195;BME280;27023;42.680;23.132;2022-09-04T05:25:37;92645.44;;;14.44;100.00
12195;BME280;27023;42.680;23.132;2022-09-04T05:28:18;92642.75;;;14.67;100.00
12195;BME280;27023;42.680;23.132;2022-09-04T05:30:50;92641.22;;;14.66;100.00
12195;BME280;27023;42.680;23.132;2022-09-04T05:33:26;92650.00;;;14.43;100.00
12195;BME280;27023;42.680;23.132;2022-09-04T05:35:58;92657.34;;;14.30;100.00
12195;BME280;27023;42.680;23.132;2022-09-04T05:38:35;92662.41;;;14.39;100.00
12195;BME280;27023;42.680;23.132;2022-09-04T05:41:15;92659.34;;;14.60;100.00
12195;BME280;27023;42.680;23.132;2022-09-04T05:43:56;92654.69;;;14.80;100.00
12195;BME280;27023;42.680;23.132;2022-09-04T05:46:40;92647.56;;;14.84;100.00
12195;BME280;27023;42.680;23.132;2022-09-04T05:49:22;92640.84;;;14.90;100.00
12195;BME280;27023;42.680;23.132;2022-09-04T05:52:03;92643.81;;;15.15;100.00
12195;BME280;27023;42.680;23.132;2022-09-04T05:55:08;92648.31;;;15.41;100.00
12195;BME280;27023;42.680;23.132;2022-09-04T05:57:59;92645.47;;;15.56;100.00
12195;BME280;27023;42.680;23.132;2022-09-04T06:00:33;92638.50;;;15.75;100.00
12195;BME280;27023;42.680;23.132;2022-09-04T06:03:38;92637.53;;;15.90;100.00
12195;BME280;27023;42.680;23.132;2022-09-04T06:06:13;92631.41;;;15.86;100.00
12195;BME280;27023;42.680;23.132;2022-09-04T06:08:59;92630.06;;;15.66;100.00
12195;BME280;27023;42.680;23.132;2022-09-04T06:11:38;92628.13;;;15.63;100.00
12195;BME280;27023;42.680;23.132;2022-09-04T06:17:32;92626.06;;;15.82;100.00
12195;BME280;27023;42.680;23.132;2022-09-04T06:20:13;92623.16;;;15.98;100.00
12195;BME280;27023;42.680;23.132;2022-09-04T06:23:15;92623.69;;;16.14;100.00
12195;BME280;27023;42.680;23.132;2022-09-04T06:26:14;92625.56;;;16.10;100.00
12195;BME280;27023;42.680;23.132;2022-09-04T06:29:06;92628.63;;;16.12;100.00
12195;BME280;27023;42.680;23.132;2022-09-04T06:31:49;92629.41;;;16.16;100.00
12195;BME280;27023;42.680;23.132;2022-09-04T06:34:29;92627.59;;;15.83;100.00
12195;BME280;27023;42.680;23.132;2022-09-04T06:37:11;92635.06;;;16.11;100.00
12195;BME280;27023;42.680;23.132;2022-09-04T06:40:08;92641.22;;;16.19;100.00
12195;BME280;27023;42.680;23.132;2022-09-04T06:42:51;92629.75;;;16.11;100.00
12195;BME280;27023;42.680;23.132;2022-09-04T06:45:26;92640.63;;;16.36;100.00
12195;BME280;27023;42.680;23.132;2022-09-04T06:48:07;92640.31;;;16.45;100.00
12195;BME280;27023;42.680;23.132;2022-09-04T06:50:46;92644.16;;;16.51;100.00
12195;BME280;27023;42.680;23.132;2022-09-04T06:53:22;92634.34;;;16.59;100.00
12195;BME280;27023;42.680;23.132;2022-09-04T06:59:05;92634.44;;;16.69;100.00
12195;BME280;27023;42.680;23.132;2022-09-04T07:01:47;92625.22;;;16.60;100.00
12195;BME280;27023;42.680;23.132;2022-09-04T07:04:38;92641.22;;;16.63;100.00
12195;BME280;27023;42.680;23.132;2022-09-04T07:07:21;92636.75;;;16.74;100.00
12195;BME280;27023;42.680;23.132;2022-09-04T07:09:53;92647.00;;;16.72;100.00
12195;BME280;27023;42.680;23.132;2022-09-04T07:12:46;92650.16;;;16.89;100.00
12195;BME280;27023;42.680;23.132;2022-09-04T07:15:45;92661.94;;;16.88;100.00
12195;BME280;27023;42.680;23.132;2022-09-04T07:18:27;92667.63;;;16.82;100.00
12195;BME280;27023;42.680;23.132;2022-09-04T07:21:05;92649.78;;;16.90;100.00
12195;BME280;27023;42.680;23.132;2022-09-04T07:23:41;92646.06;;;17.02;100.00
12195;BME280;27023;42.680;23.132;2022-09-04T07:26:21;92649.13;;;17.07;100.00
12195;BME280;27023;42.680;23.132;2022-09-04T07:29:04;92655.19;;;17.01;100.00
12195;BME280;27023;42.680;23.132;2022-09-04T07:31:38;92665.78;;;16.94;100.00
12195;BME280;27023;42.680;23.132;2022-09-04T07:34:15;92665.47;;;17.02;100.00
12195;BME280;27023;42.680;23.132;2022-09-04T07:36:51;92679.53;;;17.03;100.00
12195;BME280;27023;42.680;23.132;2022-09-04T07:39:26;92680.38;;;17.10;100.00
12195;BME280;27023;42.680;23.132;2022-09-04T07:42:00;92686.88;;;17.13;100.00
12195;BME280;27023;42.680;23.132;2022-09-04T07:44:36;92690.19;;;17.03;100.00
12195;BME280;27023;42.680;23.132;2022-09-04T07:47:09;92691.84;;;17.18;100.00
12195;BME280;27023;42.680;23.132;2022-09-04T07:49:46;92694.13;;;17.16;100.00
12195;BME280;27023;42.680;23.132;2022-09-04T07:52:26;92691.13;;;17.28;100.00
12195;BME280;27023;42.680;23.132;2022-09-04T07:55:16;92698.00;;;17.33;100.00
12195;BME280;27023;42.680;23.132;2022-09-04T08:00:42;92690.53;;;17.60;100.00
12195;BME280;27023;42.680;23.132;2022-09-04T08:03:35;92697.75;;;17.56;100.00
12195;BME280;27023;42.680;23.132;2022-09-04T08:06:10;92705.19;;;17.91;100.00
12195;BME280;27023;42.680;23.132;2022-09-04T08:12:20;92714.72;;;17.95;100.00
12195;BME280;27023;42.680;23.132;2022-09-04T08:14:53;92712.06;;;17.95;100.00
12195;BME280;27023;42.680;23.132;2022-09-04T08:17:50;92709.03;;;18.07;100.00
12195;BME280;27023;42.680;23.132;2022-09-04T08:20:39;92714.78;;;18.09;100.00
12195;BME280;27023;42.680;23.132;2022-09-04T08:26:03;92718.97;;;18.18;100.00
12195;BME280;27023;42.680;23.132;2022-09-04T08:31:35;92706.81;;;18.27;100.00
12195;BME280;27023;42.680;23.132;2022-09-04T08:34:26;92701.50;;;18.49;100.00
12195;BME280;27023;42.680;23.132;2022-09-04T08:37:04;92705.25;;;18.19;100.00
12195;BME280;27023;42.680;23.132;2022-09-04T08:39:37;92709.88;;;18.40;100.00
12195;BME280;27023;42.680;23.132;2022-09-04T08:42:43;92706.84;;;18.52;100.00
12195;BME280;27023;42.680;23.132;2022-09-04T08:52:14;92699.28;;;18.65;100.00
12195;BME280;27023;42.680;23.132;2022-09-04T08:58:10;92696.25;;;18.81;100.00
12195;BME280;27023;42.680;23.132;2022-09-04T09:01:02;92695.84;;;19.00;100.00
12195;BME280;27023;42.680;23.132;2022-09-04T09:03:54;92691.63;;;19.17;100.00
12195;BME280;27023;42.680;23.132;2022-09-04T09:07:03;92699.25;;;19.25;100.00
12195;BME280;27023;42.680;23.132;2022-09-04T09:13:03;92708.41;;;19.24;100.00
12195;BME280;27023;42.680;23.132;2022-09-04T09:15:53;92706.88;;;19.38;100.00
12195;BME280;27023;42.680;23.132;2022-09-04T09:18:33;92716.03;;;19.51;100.00
12195;BME280;27023;42.680;23.132;2022-09-04T09:21:06;92709.94;;;19.54;100.00
12195;BME280;27023;42.680;23.132;2022-09-04T09:23:43;92708.41;;;19.31;100.00
12195;BME280;27023;42.680;23.132;2022-09-04T09:26:23;92702.31;;;19.34;100.00
12195;BME280;27023;42.680;23.132;2022-09-04T09:29:26;92709.53;;;19.45;100.00
12195;BME280;27023;42.680;23.132;2022-09-04T09:35:36;92703.78;;;19.71;100.00
12195;BME280;27023;42.680;23.132;2022-09-04T09:38:49;92698.31;;;20.07;100.00
12195;BME280;27023;42.680;23.132;2022-09-04T09:44:58;92696.53;;;20.55;100.00
12195;BME280;27023;42.680;23.132;2022-09-04T09:48:10;92693.44;;;20.60;100.00
12195;BME280;27023;42.680;23.132;2022-09-04T09:51:03;92688.09;;;20.57;100.00
12195;BME280;27023;42.680;23.132;2022-09-04T09:57:25;92673.56;;;20.54;100.00
12195;BME280;27023;42.680;23.132;2022-09-04T10:00:08;92669.38;;;20.53;100.00
12195;BME280;27023;42.680;23.132;2022-09-04T10:03:01;92678.50;;;20.63;100.00
12195;BME280;27023;42.680;23.132;2022-09-04T10:15:05;92669.59;;;21.63;100.00
12195;BME280;27023;42.680;23.132;2022-09-04T10:24:04;92649.38;;;21.88;100.00
12195;BME280;27023;42.680;23.132;2022-09-04T10:29:57;92654.69;;;21.92;100.00
12195;BME280;27023;42.680;23.132;2022-09-04T10:35:35;92662.25;;;22.01;100.00
12195;BME280;27023;42.680;23.132;2022-09-04T10:38:22;92662.00;;;22.22;100.00
12195;BME280;27023;42.680;23.132;2022-09-04T10:41:14;92660.47;;;22.21;100.00
12195;BME280;27023;42.680;23.132;2022-09-04T10:46:46;92636.88;;;22.63;98.41
12195;BME280;27023;42.680;23.132;2022-09-04T10:53:04;92620.47;;;27.03;65.75
12195;BME280;27023;42.680;23.132;2022-09-04T10:55:55;92615.78;;;28.16;66.04
12195;BME280;27023;42.680;23.132;2022-09-04T10:58:49;92611.19;;;28.57;64.49
12195;BME280;27023;42.680;23.132;2022-09-04T11:05:10;92601.22;;;26.50;67.92
12195;BME280;27023;42.680;23.132;2022-09-04T11:08:02;92598.50;;;26.12;71.95
12195;BME280;27023;42.680;23.132;2022-09-04T11:10:47;92597.25;;;25.88;73.24
12195;BME280;27023;42.680;23.132;2022-09-04T11:13:41;92600.97;;;25.20;83.01
12195;BME280;27023;42.680;23.132;2022-09-04T11:16:28;92605.06;;;24.63;85.52
12195;BME280;27023;42.680;23.132;2022-09-04T11:19:23;92600.25;;;27.30;63.87
12195;BME280;27023;42.680;23.132;2022-09-04T11:25:29;92590.03;;;29.51;58.22
12195;BME280;27023;42.680;23.132;2022-09-04T11:28:09;92595.88;;;30.64;54.92
12195;BME280;27023;42.680;23.132;2022-09-04T11:30:57;92590.13;;;28.61;56.06
12195;BME280;27023;42.680;23.132;2022-09-04T11:36:58;92591.78;;;25.33;66.70
12195;BME280;27023;42.680;23.132;2022-09-04T11:42:43;92592.44;;;24.24;75.05
12195;BME280;27023;42.680;23.132;2022-09-04T11:45:31;92589.56;;;23.59;81.36
12195;BME280;27023;42.680;23.132;2022-09-04T11:48:22;92593.31;;;22.98;93.31
12195;BME280;27023;42.680;23.132;2022-09-04T11:54:14;92584.31;;;22.38;100.00
12195;BME280;27023;42.680;23.132;2022-09-04T11:57:03;92590.78;;;22.14;100.00
12195;BME280;27023;42.680;23.132;2022-09-04T11:59:46;92581.50;;;22.18;100.00
12195;BME280;27023;42.680;23.132;2022-09-04T12:02:42;92572.00;;;22.41;97.37
12195;BME280;27023;42.680;23.132;2022-09-04T12:05:20;92574.25;;;21.88;100.00
12195;BME280;27023;42.680;23.132;2022-09-04T12:08:18;92581.91;;;21.60;100.00
12195;BME280;27023;42.680;23.132;2022-09-04T12:10:53;92577.84;;;21.44;100.00
12195;BME280;27023;42.680;23.132;2022-09-04T12:13:56;92566.81;;;21.39;100.00
12195;BME280;27023;42.680;23.132;2022-09-04T12:16:50;92567.38;;;21.23;100.00
12195;BME280;27023;42.680;23.132;2022-09-04T12:19:33;92572.28;;;20.90;100.00
12195;BME280;27023;42.680;23.132;2022-09-04T12:25:29;92577.97;;;20.51;100.00
12195;BME280;27023;42.680;23.132;2022-09-04T12:28:25;92578.75;;;20.48;100.00
12195;BME280;27023;42.680;23.132;2022-09-04T12:31:06;92578.69;;;20.55;100.00
12195;BME280;27023;42.680;23.132;2022-09-04T12:34:01;92573.44;;;20.45;100.00
12195;BME280;27023;42.680;23.132;2022-09-04T12:36:58;92575.16;;;20.14;100.00
12195;BME280;27023;42.680;23.132;2022-09-04T12:42:47;92577.91;;;19.99;100.00
12195;BME280;27023;42.680;23.132;2022-09-04T12:45:27;92572.19;;;19.97;100.00
12195;BME280;27023;42.680;23.132;2022-09-04T12:48:05;92573.75;;;19.91;100.00
12195;BME280;27023;42.680;23.132;2022-09-04T12:50:41;92567.72;;;19.80;100.00
12195;BME280;27023;42.680;23.132;2022-09-04T12:56:30;92570.03;;;19.78;100.00
12195;BME280;27023;42.680;23.132;2022-09-04T12:59:17;92568.50;;;19.77;100.00
12195;BME280;27023;42.680;23.132;2022-09-04T13:01:55;92572.38;;;19.65;100.00
12195;BME280;27023;42.680;23.132;2022-09-04T13:04:30;92569.34;;;19.63;100.00
12195;BME280;27023;42.680;23.132;2022-09-04T13:07:06;92577.00;;;19.61;100.00
12195;BME280;27023;42.680;23.132;2022-09-04T13:09:44;92564.75;;;19.64;100.00
12195;BME280;27023;42.680;23.132;2022-09-04T13:12:24;92568.16;;;19.68;100.00
12195;BME280;27023;42.680;23.132;2022-09-04T13:15:12;92578.50;;;19.66;100.00
12195;BME280;27023;42.680;23.132;2022-09-04T13:17:48;92570.81;;;19.75;100.00
12195;BME280;27023;42.680;23.132;2022-09-04T13:20:22;92579.97;;;19.74;100.00
12195;BME280;27023;42.680;23.132;2022-09-04T13:23:23;92565.47;;;19.72;100.00
12195;BME280;27023;42.680;23.132;2022-09-04T13:26:12;92571.22;;;19.70;100.00
12195;BME280;27023;42.680;23.132;2022-09-04T13:28:50;92576.97;;;19.65;100.00
12195;BME280;27023;42.680;23.132;2022-09-04T13:31:35;92564.00;;;19.63;100.00
12195;BME280;27023;42.680;23.132;2022-09-04T13:34:13;92568.19;;;19.64;100.00
12195;BME280;27023;42.680;23.132;2022-09-04T13:37:00;92558.63;;;19.67;100.00
12195;BME280;27023;42.680;23.132;2022-09-04T13:39:55;92559.25;;;19.89;100.00
12195;BME280;27023;42.680;23.132;2022-09-04T13:43:02;92553.09;;;19.95;100.00
12195;BME280;27023;42.680;23.132;2022-09-04T13:45:38;92553.06;;;19.99;100.00
12195;BME280;27023;42.680;23.132;2022-09-04T13:48:09;92560.38;;;20.50;100.00
12195;BME280;27023;42.680;23.132;2022-09-04T13:50:42;92550.69;;;20.63;100.00
12195;BME280;27023;42.680;23.132;2022-09-04T13:53:15;92554.34;;;20.39;100.00
12195;BME280;27023;42.680;23.132;2022-09-04T13:55:48;92555.09;;;20.43;100.00
12195;BME280;27023;42.680;23.132;2022-09-04T13:58:20;92556.84;;;20.60;100.00
12195;BME280;27023;42.680;23.132;2022-09-04T14:00:51;92555.09;;;20.88;100.00
12195;BME280;27023;42.680;23.132;2022-09-04T14:03:29;92547.34;;;20.97;100.00
12195;BME280;27023;42.680;23.132;2022-09-04T14:05:59;92551.38;;;21.12;100.00
12195;BME280;27023;42.680;23.132;2022-09-04T14:08:27;92549.53;;;21.06;100.00
12195;BME280;27023;42.680;23.132;2022-09-04T14:14:36;92545.63;;;20.73;100.00
12195;BME280;27023;42.680;23.132;2022-09-04T14:17:07;92557.09;;;20.77;100.00
12195;BME280;27023;42.680;23.132;2022-09-04T14:19:44;92551.06;;;20.66;100.00
12195;BME280;27023;42.680;23.132;2022-09-04T14:22:31;92572.16;;;20.60;100.00
12195;BME280;27023;42.680;23.132;2022-09-04T14:25:10;92564.22;;;20.49;100.00
12195;BME280;27023;42.680;23.132;2022-09-04T14:27:50;92556.44;;;20.62;100.00
12195;BME280;27023;42.680;23.132;2022-09-04T14:30:21;92558.06;;;20.97;100.00
12195;BME280;27023;42.680;23.132;2022-09-04T14:32:57;92560.00;;;20.93;100.00
12195;BME280;27023;42.680;23.132;2022-09-04T14:35:33;92568.59;;;20.74;100.00
12195;BME280;27023;42.680;23.132;2022-09-04T14:38:17;92574.88;;;20.56;100.00
12195;BME280;27023;42.680;23.132;2022-09-04T14:40:57;92557.56;;;20.65;100.00
12195;BME280;27023;42.680;23.132;2022-09-04T14:43:34;92565.53;;;20.72;100.00
12195;BME280;27023;42.680;23.132;2022-09-04T14:46:14;92564.22;;;20.49;100.00
12195;BME280;27023;42.680;23.132;2022-09-04T14:48:48;92560.72;;;20.56;100.00
12195;BME280;27023;42.680;23.132;2022-09-04T14:51:31;92568.06;;;20.48;100.00
12195;BME280;27023;42.680;23.132;2022-09-04T14:53:59;92560.22;;;20.20;100.00
12195;BME280;27023;42.680;23.132;2022-09-04T14:56:30;92559.94;;;20.04;100.00
12195;BME280;27023;42.680;23.132;2022-09-04T14:59:07;92554.31;;;19.87;100.00
12195;BME280;27023;42.680;23.132;2022-09-04T15:01:52;92551.69;;;19.77;100.00
12195;BME280;27023;42.680;23.132;2022-09-04T15:04:24;92564.72;;;19.67;100.00
12195;BME280;27023;42.680;23.132;2022-09-04T15:06:55;92575.09;;;19.58;100.00
12195;BME280;27023;42.680;23.132;2022-09-04T15:09:25;92577.34;;;19.63;100.00
12195;BME280;27023;42.680;23.132;2022-09-04T15:12:13;92578.13;;;19.60;100.00
12195;BME280;27023;42.680;23.132;2022-09-04T15:14:44;92574.72;;;19.60;100.00
12195;BME280;27023;42.680;23.132;2022-09-04T15:17:21;92577.75;;;19.62;100.00
12195;BME280;27023;42.680;23.132;2022-09-04T15:19:58;92569.72;;;19.62;100.00
12195;BME280;27023;42.680;23.132;2022-09-04T15:22:34;92560.94;;;19.61;100.00
12195;BME280;27023;42.680;23.132;2022-09-04T15:25:05;92557.88;;;19.66;100.00
12195;BME280;27023;42.680;23.132;2022-09-04T15:27:41;92569.34;;;19.60;100.00
12195;BME280;27023;42.680;23.132;2022-09-04T15:30:16;92576.53;;;19.74;100.00
12195;BME280;27023;42.680;23.132;2022-09-04T15:32:44;92591.44;;;19.71;100.00
12195;BME280;27023;42.680;23.132;2022-09-04T15:35:15;92595.28;;;19.70;100.00